createdAt,value
2022-10-13T00:03:39.805Z,89.78
2022-10-13T00:13:42.473Z,90.99
2022-10-13T00:23:46.948Z,90.79
2022-10-13T00:33:54.740Z,90.76
2022-10-13T00:44:00.247Z,89.86
2022-10-13T00:54:06.395Z,88.84
2022-10-13T01:04:11.251Z,88.43
2022-10-13T01:14:35.379Z,88.55
2022-10-13T01:25:13.363Z,90.01
2022-10-13T01:35:42.073Z,91.34
2022-10-13T01:45:48.213Z,93.42
2022-10-13T01:55:55.005Z,94.62
2022-10-13T02:06:18.017Z,96.80
2022-10-13T02:16:23.635Z,99.95
2022-10-13T02:26:26.814Z,100.00
2022-10-13T02:36:38.289Z,100.00
2022-10-13T02:46:40.311Z,100.00
2022-10-13T02:56:43.431Z,100.00
2022-10-13T03:06:45.569Z,100.00
2022-10-13T03:16:54.738Z,100.00
2022-10-13T03:27:01.227Z,100.00
2022-10-13T03:37:10.388Z,99.60
2022-10-13T03:47:16.938Z,99.97
2022-10-13T03:57:21.358Z,100.00
2022-10-13T04:07:23.358Z,100.00
2022-10-13T04:17:25.386Z,100.00
2022-10-13T04:27:33.599Z,100.00
2022-10-13T04:37:44.790Z,100.00
2022-10-13T04:47:49.764Z,100.00
2022-10-13T04:57:53.114Z,100.00
2022-10-13T05:07:55.129Z,100.00
2022-10-13T05:18:01.913Z,100.00
2022-10-13T05:28:08.539Z,100.00
2022-10-13T05:38:10.525Z,100.00
2022-10-13T05:48:18.259Z,96.37
2022-10-13T05:58:20.547Z,89.19
2022-10-13T06:08:22.585Z,81.50
2022-10-13T06:18:27.066Z,78.08
2022-10-13T06:28:29.095Z,73.31
2022-10-13T06:38:31.946Z,69.81
2022-10-13T06:48:36.324Z,63.37
2022-10-13T06:58:41.680Z,58.11
2022-10-13T07:08:43.786Z,57.28
2022-10-13T07:18:48.031Z,55.33
2022-10-13T07:28:50.055Z,54.35
2022-10-13T07:38:54.244Z,54.81
2022-10-13T07:48:56.268Z,57.17
2022-10-13T07:59:02.787Z,58.18
2022-10-13T08:09:07.801Z,58.86
2022-10-13T08:19:09.731Z,60.47
2022-10-13T08:29:21.778Z,58.33
2022-10-13T08:39:26.811Z,58.09
2022-10-13T08:49:28.996Z,57.88
2022-10-13T08:59:33.500Z,57.68
2022-10-13T09:09:38.684Z,58.60
2022-10-13T09:19:43.563Z,59.22
2022-10-13T09:29:50.938Z,59.96
2022-10-13T09:40:23.504Z,59.87
2022-10-13T09:50:30.118Z,60.07
2022-10-13T10:00:34.653Z,58.20
2022-10-13T10:10:42.222Z,57.33
2022-10-13T10:21:10.979Z,54.67
2022-10-13T10:31:23.957Z,54.65
2022-10-13T10:41:35.448Z,53.04
2022-10-13T10:51:39.820Z,52.95
2022-10-13T11:02:09.227Z,51.40
2022-10-13T11:12:21.004Z,51.39
2022-10-13T11:22:31.729Z,50.96
2022-10-13T11:32:36.653Z,51.07
2022-10-13T11:43:10.137Z,51.17
2022-10-13T11:53:19.176Z,51.89
2022-10-13T12:03:30.542Z,51.64
2022-10-13T12:13:33.961Z,51.08
2022-10-13T12:23:36.164Z,51.44
2022-10-13T12:33:39.536Z,50.70
2022-10-13T12:43:42.843Z,51.21
2022-10-13T12:53:48.091Z,50.08
2022-10-13T13:03:57.895Z,50.27
2022-10-13T13:14:31.860Z,49.90
2022-10-13T13:24:40.222Z,50.78
2022-10-13T13:34:47.980Z,50.99
2022-10-13T13:44:50.242Z,51.32
2022-10-13T13:54:56.316Z,52.38
2022-10-13T14:05:01.025Z,52.55
2022-10-13T14:15:08.221Z,53.32
2022-10-13T14:25:10.950Z,54.18
2022-10-13T14:35:15.530Z,54.38
2022-10-13T14:45:19.673Z,54.39
2022-10-13T14:55:24.162Z,54.37
2022-10-13T15:05:26.104Z,54.52
2022-10-13T15:15:28.222Z,54.83
2022-10-13T15:25:35.524Z,55.76
2022-10-13T15:35:38.809Z,56.26
2022-10-13T15:45:43.365Z,56.95
2022-10-13T15:55:47.647Z,57.50
2022-10-13T16:05:49.701Z,58.41
2022-10-13T16:16:01.578Z,59.30
2022-10-13T16:26:08.702Z,59.79
2022-10-13T16:36:13.201Z,60.63
2022-10-13T16:46:18.243Z,61.73
2022-10-13T16:56:22.556Z,62.71
2022-10-13T17:06:27.519Z,63.62
2022-10-13T17:16:30.213Z,65.15
2022-10-13T17:26:34.494Z,67.07
2022-10-13T17:36:43.722Z,68.89
2022-10-13T17:46:51.137Z,70.94
2022-10-13T17:56:57.325Z,71.56
2022-10-13T18:06:59.380Z,71.76
2022-10-13T18:17:06.511Z,72.05
2022-10-13T18:27:08.628Z,72.45
2022-10-13T18:37:11.822Z,72.98
2022-10-13T18:47:15.990Z,74.02
2022-10-13T18:57:20.954Z,75.31
2022-10-13T19:07:23.505Z,76.67
2022-10-13T19:17:30.162Z,77.93
2022-10-13T19:27:34.603Z,79.11
2022-10-13T19:37:40.016Z,80.09
2022-10-13T19:47:44.484Z,80.77
2022-10-13T19:57:49.086Z,81.09
2022-10-13T20:07:52.472Z,80.94
2022-10-13T20:17:54.418Z,80.59
2022-10-13T20:28:01.072Z,80.96
2022-10-13T20:38:04.830Z,81.11
2022-10-13T20:48:07.136Z,81.78
2022-10-13T20:58:13.764Z,82.32
2022-10-13T21:08:18.738Z,83.66
2022-10-13T21:18:25.600Z,85.16
2022-10-13T21:28:30.607Z,87.36
2022-10-13T21:38:32.704Z,89.55
2022-10-13T21:48:39.623Z,90.50
2022-10-13T21:58:45.193Z,89.54
2022-10-13T22:09:05.104Z,90.86
2022-10-13T22:19:12.989Z,92.59
2022-10-13T22:29:17.583Z,94.46
2022-10-13T22:50:31.542Z,95.29
2022-10-13T23:00:37.937Z,95.87
2022-10-13T23:10:45.091Z,96.20
2022-10-13T23:20:56.536Z,96.08
2022-10-13T23:31:07.258Z,96.31
2022-10-13T23:41:16.284Z,96.80
2022-10-13T23:51:21.674Z,96.73
